Time;durP1;ratioP1;P1;durP2;ratioP2;P2;SDS_P1;SDS_P2;PMS_P1;PMS_P2;Temp;Humidity;BMP_temperature;BMP_pressure;BME280_temperature;BME280_humidity;BME280_pressure;Samples;Min_cycle;Max_cycle;Signal;HPM_P1;HPM_P2
2022/04/07 00:01:03;;;;;;;9.75;7.45;;;9.30;99.90;;;;;;4975262;28;20042;-77
2022/04/07 00:03:29;;;;;;;11.52;6.80;;;9.40;99.90;;;;;;4974173;28;20125;-77
2022/04/07 00:05:55;;;;;;;9.73;6.63;;;9.40;99.90;;;;;;4959522;28;20495;-77
2022/04/07 00:08:21;;;;;;;10.25;7.18;;;9.50;99.90;;;;;;4942824;28;20125;-77
2022/04/07 00:10:48;;;;;;;8.98;6.88;;;9.40;99.90;;;;;;4975119;28;20130;-77
2022/04/07 00:13:14;;;;;;;11.18;7.63;;;9.50;99.90;;;;;;4959286;28;20553;-77
2022/04/07 00:15:40;;;;;;;12.18;8.30;;;9.40;99.90;;;;;;4975391;28;20035;-77
2022/04/07 00:18:06;;;;;;;10.60;8.40;;;9.40;99.90;;;;;;4973802;28;20034;-77
2022/04/07 00:20:33;;;;;;;12.63;8.75;;;9.50;99.90;;;;;;4958751;28;20466;-77
2022/04/07 00:22:59;;;;;;;12.60;9.25;;;9.40;99.90;;;;;;4958399;28;20051;-77
2022/04/07 00:25:28;;;;;;;11.52;8.93;;;9.40;99.90;;;;;;4974828;28;20038;-77
2022/04/07 00:27:54;;;;;;;13.02;9.25;;;9.30;99.90;;;;;;4974433;28;20474;-77
2022/04/07 00:30:21;;;;;;;12.30;10.05;;;9.30;99.90;;;;;;4974959;28;20449;-77
2022/04/07 00:32:50;;;;;;;12.68;9.82;;;9.20;99.90;;;;;;4973935;28;20410;-77
2022/04/07 00:35:17;;;;;;;13.73;10.25;;;9.20;99.90;;;;;;4958625;28;20078;-77
2022/04/07 00:37:43;;;;;;;13.45;10.10;;;9.20;99.90;;;;;;4958269;28;20066;-77
2022/04/07 00:40:10;;;;;;;12.70;11.07;;;9.20;99.90;;;;;;4974524;28;20043;-77
2022/04/07 00:42:50;;;;;;;13.15;10.55;;;9.20;99.90;;;;;;4942309;28;20049;-77
2022/04/07 00:45:18;;;;;;;13.52;11.55;;;9.30;99.90;;;;;;4958479;28;20134;-77
2022/04/07 00:47:45;;;;;;;14.48;11.63;;;9.20;99.90;;;;;;4957645;28;20038;-77
2022/04/07 00:50:12;;;;;;;13.05;11.45;;;9.10;99.90;;;;;;4974261;28;20445;-77
2022/04/07 00:52:42;;;;;;;13.00;11.60;;;9.20;99.90;;;;;;4958313;28;20486;-77
2022/04/07 00:55:12;;;;;;;13.00;11.70;;;9.20;99.90;;;;;;4974589;28;20502;-77
2022/04/07 00:57:40;;;;;;;12.57;11.27;;;9.30;99.90;;;;;;4957816;28;20450;-77
2022/04/07 01:00:08;;;;;;;13.77;11.07;;;9.20;99.90;;;;;;4973983;28;20050;-77
2022/04/07 01:02:34;;;;;;;13.20;11.40;;;9.20;99.90;;;;;;4941327;28;20641;-77
2022/04/07 01:05:00;;;;;;;12.52;10.40;;;9.20;99.90;;;;;;4958284;28;20117;-77
2022/04/07 01:07:25;;;;;;;11.85;9.20;;;9.30;99.90;;;;;;4973860;28;20136;-77
2022/04/07 01:09:52;;;;;;;11.68;9.40;;;9.30;99.90;;;;;;4957984;28;20054;-77
2022/04/07 01:12:17;;;;;;;12.55;10.15;;;9.40;99.90;;;;;;4957677;28;20051;-77
2022/04/07 01:14:59;;;;;;;12.95;9.52;;;9.40;99.90;;;;;;4974187;28;20405;-77
2022/04/07 01:17:25;;;;;;;12.65;8.93;;;9.40;99.90;;;;;;4973176;28;20077;-77
2022/04/07 01:19:51;;;;;;;12.85;10.13;;;9.50;99.90;;;;;;4973732;28;20054;-77
2022/04/07 01:22:19;;;;;;;12.43;9.52;;;9.40;99.90;;;;;;4957705;28;20497;-77
2022/04/07 01:24:47;;;;;;;11.02;8.80;;;9.40;99.90;;;;;;4957940;28;20091;-77
2022/04/07 01:27:14;;;;;;;12.93;9.55;;;9.40;99.90;;;;;;4973458;28;20039;-77
2022/04/07 01:29:40;;;;;;;13.07;9.85;;;9.40;99.90;;;;;;4973831;28;20720;-77
2022/04/07 01:32:13;;;;;;;14.77;10.15;;;9.40;99.90;;;;;;4973090;28;20093;-77
2022/04/07 01:34:40;;;;;;;14.32;10.00;;;9.30;99.90;;;;;;4973414;28;20031;-77
2022/04/07 01:37:08;;;;;;;14.20;9.57;;;9.30;99.90;;;;;;4973343;28;20093;-77
2022/04/07 01:39:36;;;;;;;12.35;9.45;;;9.20;99.90;;;;;;4981239;28;20398;-77
2022/04/07 01:42:03;;;;;;;16.10;8.95;;;9.30;99.90;;;;;;4992504;28;20045;-77
2022/04/07 01:44:29;;;;;;;11.55;8.30;;;9.30;99.90;;;;;;4992983;28;20545;-77
2022/04/07 01:46:56;;;;;;;10.95;7.88;;;9.30;99.90;;;;;;4992810;28;20077;-77
2022/04/07 01:49:23;;;;;;;13.13;8.38;;;9.40;99.90;;;;;;4991963;28;20038;-77
2022/04/07 01:51:49;;;;;;;11.93;7.70;;;9.40;99.90;;;;;;4992631;28;20137;-77
2022/04/07 01:54:15;;;;;;;9.75;7.50;;;9.30;99.90;;;;;;4992465;28;20065;-77
2022/04/07 01:56:42;;;;;;;10.20;6.93;;;9.30;99.90;;;;;;4992725;28;20046;-77
2022/04/07 01:59:09;;;;;;;10.63;6.35;;;9.30;99.90;;;;;;4992673;28;20057;-77
2022/04/07 02:01:35;;;;;;;9.52;6.20;;;9.30;99.90;;;;;;4991694;28;20042;-77
2022/04/07 02:04:01;;;;;;;10.15;6.32;;;9.30;99.90;;;;;;4991594;28;20125;-77
2022/04/07 02:06:27;;;;;;;12.35;6.13;;;9.20;99.90;;;;;;4976452;28;20045;-77
2022/04/07 02:08:54;;;;;;;12.95;6.38;;;9.30;99.90;;;;;;4992235;28;20046;-77
2022/04/07 02:11:22;;;;;;;10.95;6.35;;;9.20;99.90;;;;;;4976318;28;20208;-77
2022/04/07 02:13:48;;;;;;;11.27;6.60;;;9.20;99.90;;;;;;4992254;28;20125;-77
2022/04/07 02:16:15;;;;;;;10.68;6.65;;;9.20;99.90;;;;;;4992538;28;20449;-77
2022/04/07 02:18:41;;;;;;;12.35;6.40;;;9.20;99.90;;;;;;4978416;28;20426;-77
2022/04/07 02:21:07;;;;;;;11.45;5.78;;;9.20;99.90;;;;;;4973005;28;20115;-77
2022/04/07 02:23:40;;;;;;;9.57;6.00;;;9.20;99.90;;;;;;4972741;28;20042;-77
2022/04/07 02:26:13;;;;;;;11.32;6.22;;;9.10;99.90;;;;;;4973216;28;20518;-77
2022/04/07 02:28:39;;;;;;;10.60;6.10;;;9.10;99.90;;;;;;4972928;28;20046;-77
2022/04/07 02:31:06;;;;;;;11.68;6.28;;;9.10;99.90;;;;;;4956949;28;20043;-77
2022/04/07 02:33:34;;;;;;;12.30;6.22;;;9.20;99.90;;;;;;4955926;28;20498;-77
2022/04/07 02:36:01;;;;;;;13.60;6.28;;;9.10;99.90;;;;;;4956902;28;20133;-77
2022/04/07 02:38:26;;;;;;;13.23;5.78;;;9.10;99.90;;;;;;4972890;28;20050;-77
2022/04/07 02:40:52;;;;;;;13.45;6.45;;;9.10;99.90;;;;;;4956826;28;20038;-77
2022/04/07 02:43:18;;;;;;;15.63;6.68;;;9.10;99.90;;;;;;4972429;28;20089;-77
2022/04/07 02:45:43;;;;;;;15.25;6.97;;;9.10;99.90;;;;;;4956883;28;20429;-77
2022/04/07 02:48:09;;;;;;;14.23;6.88;;;9.10;99.90;;;;;;4971786;28;20126;-77
2022/04/07 02:50:35;;;;;;;15.18;7.18;;;9.10;99.90;;;;;;4940544;28;20114;-77
2022/04/07 02:53:00;;;;;;;13.20;7.13;;;9.00;99.90;;;;;;4972415;28;20058;-77
2022/04/07 02:55:27;;;;;;;15.45;6.90;;;9.00;99.90;;;;;;4940772;28;20482;-77
2022/04/07 02:57:53;;;;;;;15.40;7.20;;;8.90;99.90;;;;;;4972466;28;20050;-77
2022/04/07 03:00:19;;;;;;;15.00;7.28;;;8.90;99.90;;;;;;4956514;28;20043;-77
2022/04/07 03:02:44;;;;;;;14.45;6.95;;;8.90;99.90;;;;;;4972022;28;20050;-77
2022/04/07 03:05:11;;;;;;;12.88;6.95;;;9.00;99.90;;;;;;4940887;28;20061;-77
2022/04/07 03:07:36;;;;;;;14.13;6.30;;;9.00;99.90;;;;;;4972282;28;20446;-77
2022/04/07 03:10:02;;;;;;;12.27;6.53;;;9.00;99.90;;;;;;4956605;28;20039;-77
2022/04/07 03:12:28;;;;;;;12.68;6.07;;;9.00;99.90;;;;;;4972579;28;20039;-77
2022/04/07 03:14:54;;;;;;;12.18;5.95;;;9.00;99.90;;;;;;4956829;28;20049;-77
2022/04/07 03:17:19;;;;;;;14.55;5.95;;;9.00;99.90;;;;;;4955624;28;20051;-77
2022/04/07 03:19:45;;;;;;;14.43;6.43;;;9.00;99.90;;;;;;4972948;28;20038;-77
2022/04/07 03:22:12;;;;;;;15.13;7.00;;;9.00;99.90;;;;;;4975852;28;20043;-77
2022/04/07 03:24:38;;;;;;;13.57;6.55;;;9.00;99.90;;;;;;4944434;28;20045;-77
2022/04/07 03:27:08;;;;;;;12.35;5.93;;;9.00;99.90;;;;;;4975791;28;20509;-77
2022/04/07 03:29:34;;;;;;;14.68;7.00;;;9.00;99.90;;;;;;4975856;28;20097;-77
2022/04/07 03:32:00;;;;;;;16.10;8.00;;;8.90;99.90;;;;;;4975311;28;20047;-77
2022/04/07 03:34:26;;;;;;;18.23;8.50;;;9.10;99.90;;;;;;4975225;28;20054;-77
2022/04/07 03:36:51;;;;;;;19.15;8.30;;;8.90;99.90;;;;;;4975941;28;20082;-77
2022/04/07 03:39:17;;;;;;;13.23;7.80;;;8.90;99.90;;;;;;4975249;28;20042;-77
2022/04/07 03:41:43;;;;;;;15.10;7.53;;;8.80;99.90;;;;;;4959522;28;20137;-77
2022/04/07 03:44:10;;;;;;;12.70;6.85;;;8.90;99.90;;;;;;4959326;28;20039;-77
2022/04/07 03:46:36;;;;;;;15.48;7.50;;;8.90;99.90;;;;;;4975543;28;20078;-77
2022/04/07 03:49:03;;;;;;;15.27;7.88;;;8.80;99.90;;;;;;4958768;28;20449;-77
2022/04/07 03:51:29;;;;;;;14.40;7.90;;;8.80;99.90;;;;;;4975255;28;20054;-77
2022/04/07 03:53:55;;;;;;;14.07;7.57;;;8.80;99.90;;;;;;4975173;28;20129;-77
2022/04/07 03:56:21;;;;;;;19.15;8.32;;;8.80;99.90;;;;;;4975654;28;20063;-77
2022/04/07 03:58:46;;;;;;;21.10;9.23;;;8.80;99.90;;;;;;4959312;28;20082;-77
2022/04/07 04:01:13;;;;;;;16.10;8.13;;;8.80;99.90;;;;;;4975182;28;20039;-77
2022/04/07 04:03:39;;;;;;;15.73;7.32;;;8.80;99.90;;;;;;4974507;28;20051;-77
2022/04/07 04:06:05;;;;;;;16.38;6.47;;;8.90;99.90;;;;;;4975259;28;20123;-77
2022/04/07 04:08:31;;;;;;;9.95;4.95;;;8.80;99.90;;;;;;4975003;28;20039;-77
2022/04/07 04:10:57;;;;;;;9.93;4.47;;;8.80;99.90;;;;;;4975082;28;20104;-77
2022/04/07 04:13:22;;;;;;;13.55;5.10;;;8.80;99.90;;;;;;4975095;28;20116;-77
2022/04/07 04:15:48;;;;;;;14.13;4.28;;;8.80;99.90;;;;;;4975341;28;20043;-77
2022/04/07 04:18:14;;;;;;;15.40;5.07;;;8.90;99.90;;;;;;4957864;28;20190;-77
2022/04/07 04:20:40;;;;;;;14.23;6.13;;;8.90;99.90;;;;;;4974805;28;20498;-77
2022/04/07 04:23:05;;;;;;;14.13;5.85;;;9.00;99.90;;;;;;4991068;28;20498;-77
2022/04/07 04:25:31;;;;;;;20.42;6.10;;;8.90;99.90;;;;;;4974790;28;20134;-77
2022/04/07 04:27:57;;;;;;;19.25;5.95;;;8.90;99.90;;;;;;4974575;28;20042;-77
2022/04/07 04:30:23;;;;;;;16.90;5.90;;;8.80;99.90;;;;;;4974716;28;20045;-77
2022/04/07 04:32:48;;;;;;;22.50;5.80;;;8.90;99.90;;;;;;4973938;28;20482;-77
2022/04/07 04:35:14;;;;;;;19.90;6.00;;;8.80;99.90;;;;;;4958694;28;20125;-77
2022/04/07 04:37:40;;;;;;;23.20;5.97;;;8.70;99.90;;;;;;4958442;28;20414;-77
2022/04/07 04:40:07;;;;;;;20.13;5.90;;;8.70;99.90;;;;;;4974350;28;20490;-77
2022/04/07 04:42:32;;;;;;;19.55;5.38;;;8.70;99.90;;;;;;4974195;28;20052;-77
2022/04/07 04:44:58;;;;;;;17.90;5.88;;;8.80;99.90;;;;;;4974481;28;20123;-77
2022/04/07 04:47:24;;;;;;;20.65;6.38;;;8.70;99.90;;;;;;4957360;28;20039;-77
2022/04/07 04:49:50;;;;;;;20.13;6.03;;;8.70;99.90;;;;;;4974485;28;20398;-77
2022/04/07 04:52:16;;;;;;;17.85;6.00;;;8.70;99.90;;;;;;4973965;28;20051;-77
2022/04/07 04:54:41;;;;;;;20.27;6.03;;;8.70;99.90;;;;;;4974401;28;20050;-77
2022/04/07 04:57:08;;;;;;;19.55;6.78;;;8.70;99.90;;;;;;4974084;28;20035;-77
2022/04/07 04:59:34;;;;;;;22.52;6.63;;;8.70;99.90;;;;;;4958293;28;20442;-77
2022/04/07 05:02:00;;;;;;;20.02;6.50;;;8.70;99.90;;;;;;4973774;28;20047;-77
2022/04/07 05:04:26;;;;;;;25.05;6.93;;;8.70;99.90;;;;;;4973674;28;20387;-77
2022/04/07 05:06:51;;;;;;;22.48;7.13;;;8.70;99.90;;;;;;4957892;28;20520;-77
2022/04/07 05:09:17;;;;;;;20.08;6.55;;;8.70;99.90;;;;;;4973801;28;20126;-77
2022/04/07 05:11:43;;;;;;;20.52;6.72;;;8.80;99.90;;;;;;4958141;28;20061;-77
2022/04/07 05:14:08;;;;;;;21.80;7.38;;;8.70;99.90;;;;;;4973993;28;20094;-77
2022/04/07 05:16:34;;;;;;;17.33;6.68;;;8.70;99.90;;;;;;4974193;28;20039;-77
2022/04/07 05:19:00;;;;;;;22.55;6.80;;;8.70;99.90;;;;;;4972656;28;20078;-77
2022/04/07 05:21:26;;;;;;;19.88;6.50;;;8.70;99.90;;;;;;4957602;28;20490;-77
2022/04/07 05:23:52;;;;;;;23.13;7.10;;;8.80;99.90;;;;;;4973775;28;20051;-77
2022/04/07 05:26:18;;;;;;;22.27;7.30;;;8.80;99.90;;;;;;4973698;28;20034;-77
2022/04/07 05:28:44;;;;;;;20.08;6.50;;;8.70;99.90;;;;;;4957270;28;20039;-77
2022/04/07 05:31:10;;;;;;;19.65;6.50;;;8.80;99.90;;;;;;4973915;28;20046;-77
2022/04/07 05:33:36;;;;;;;17.38;6.57;;;8.80;99.90;;;;;;4956848;28;20130;-77
2022/04/07 05:36:02;;;;;;;22.00;7.35;;;8.80;99.90;;;;;;4973550;28;20047;-77
2022/04/07 05:38:28;;;;;;;21.23;6.82;;;8.70;99.90;;;;;;4973224;28;20046;-77
2022/04/07 05:40:54;;;;;;;20.02;6.80;;;8.80;99.90;;;;;;4973517;28;20130;-77
2022/04/07 05:43:19;;;;;;;18.30;6.32;;;8.60;99.90;;;;;;4972546;28;20046;-77
2022/04/07 05:45:45;;;;;;;20.05;6.10;;;8.80;99.90;;;;;;4957674;28;20030;-78
2022/04/07 05:48:15;;;;;;;19.75;6.15;;;8.70;99.90;;;;;;4940810;28;20105;-79
2022/04/07 05:50:40;;;;;;;14.63;5.57;;;8.70;99.90;;;;;;4973406;28;20506;-78
2022/04/07 05:53:07;;;;;;;16.40;5.80;;;8.80;99.90;;;;;;4954764;28;20049;-78
2022/04/07 05:55:33;;;;;;;16.27;5.82;;;8.70;99.90;;;;;;4975738;28;20042;-78
2022/04/07 05:58:08;;;;;;;18.25;6.03;;;8.70;99.90;;;;;;4981625;28;20038;-79
2022/04/07 06:00:36;;;;;;;17.45;5.50;;;8.70;99.90;;;;;;4998929;28;20117;-79
2022/04/07 06:03:02;;;;;;;15.43;5.07;;;8.70;99.90;;;;;;4957765;28;20034;-79
2022/04/07 06:05:27;;;;;;;13.93;5.60;;;8.80;99.90;;;;;;4957828;28;20065;-80
2022/04/07 06:08:00;;;;;;;12.75;5.43;;;8.80;99.90;;;;;;4983917;28;20042;-80
2022/04/07 06:10:26;;;;;;;15.68;5.55;;;8.80;99.90;;;;;;4961257;28;20049;-80
2022/04/07 06:12:52;;;;;;;12.95;5.15;;;8.80;99.90;;;;;;4976126;28;20038;-80
2022/04/07 06:15:18;;;;;;;16.77;5.28;;;8.80;99.90;;;;;;4976236;28;20490;-80
2022/04/07 06:17:44;;;;;;;12.82;5.05;;;8.80;99.90;;;;;;4971989;28;20054;-80
2022/04/07 06:20:11;;;;;;;8.98;2.88;;;8.80;99.90;;;;;;4972945;28;20057;-80
2022/04/07 06:22:38;;;;;;;4.88;1.20;;;8.80;99.90;;;;;;4973023;28;20561;-80
2022/04/07 06:25:04;;;;;;;5.57;1.20;;;8.50;99.90;;;;;;4970707;28;20124;-80
2022/04/07 06:27:38;;;;;;;3.53;0.80;;;8.00;99.90;;;;;;4992118;28;20042;-79
2022/04/07 06:30:06;;;;;;;4.18;0.95;;;7.60;99.90;;;;;;4992364;28;20108;-79
2022/04/07 06:32:32;;;;;;;3.88;1.00;;;7.40;99.90;;;;;;4975368;28;20062;-79
2022/04/07 06:34:58;;;;;;;2.95;0.90;;;7.30;99.90;;;;;;4976323;28;20116;-79
2022/04/07 06:37:25;;;;;;;3.28;0.90;;;7.20;99.90;;;;;;4975730;28;20042;-78
2022/04/07 06:39:50;;;;;;;2.85;0.85;;;6.90;99.90;;;;;;4992194;28;20473;-78
2022/04/07 06:42:16;;;;;;;3.92;1.00;;;6.90;99.90;;;;;;4987010;28;20085;-77
2022/04/07 06:44:42;;;;;;;5.32;1.20;;;6.80;99.90;;;;;;4972702;28;20035;-77
2022/04/07 06:47:08;;;;;;;6.57;1.20;;;6.60;99.90;;;;;;4943271;28;20065;-77
2022/04/07 06:49:34;;;;;;;6.55;1.23;;;6.50;99.90;;;;;;4975722;28;20523;-77
2022/04/07 06:51:59;;;;;;;2.80;0.80;;;6.60;99.90;;;;;;4979365;28;20086;-77
2022/04/07 06:54:25;;;;;;;6.05;1.20;;;6.70;99.90;;;;;;4974638;28;20157;-77
2022/04/07 06:56:51;;;;;;;3.60;1.10;;;6.40;99.90;;;;;;4996183;28;20108;-77
2022/04/07 06:59:16;;;;;;;6.93;1.20;;;6.40;99.90;;;;;;4963546;28;20048;-78
2022/04/07 07:01:42;;;;;;;5.25;1.00;;;6.30;99.90;;;;;;4979681;28;20081;-78
2022/04/07 07:04:08;;;;;;;4.00;1.00;;;6.30;99.90;;;;;;4978864;28;20042;-78
2022/04/07 07:06:33;;;;;;;4.45;1.08;;;6.30;99.90;;;;;;4995708;28;20097;-78
2022/04/07 07:08:59;;;;;;;3.15;1.00;;;6.30;99.90;;;;;;4995445;28;20038;-78
2022/04/07 07:11:25;;;;;;;3.47;0.90;;;6.20;99.90;;;;;;4979714;28;20088;-78
2022/04/07 07:13:50;;;;;;;5.45;0.90;;;6.20;99.90;;;;;;4979169;28;20042;-78
2022/04/07 07:16:16;;;;;;;2.97;0.98;;;6.30;99.90;;;;;;4991974;28;20046;-78
2022/04/07 07:18:42;;;;;;;4.53;0.90;;;6.10;99.90;;;;;;4974930;28;20129;-78
2022/04/07 07:21:08;;;;;;;2.08;0.70;;;6.10;99.90;;;;;;4978355;28;20461;-77
2022/04/07 07:23:34;;;;;;;2.92;0.90;;;6.00;99.90;;;;;;4975407;28;20039;-77
2022/04/07 07:26:00;;;;;;;2.83;0.90;;;6.00;99.90;;;;;;4992201;28;20486;-77
2022/04/07 07:28:26;;;;;;;3.67;0.90;;;5.90;99.90;;;;;;4975919;28;20034;-77
2022/04/07 07:30:52;;;;;;;3.30;0.88;;;5.90;99.90;;;;;;4959918;28;20054;-78
2022/04/07 07:33:17;;;;;;;3.28;0.80;;;6.00;99.90;;;;;;4974799;28;20046;-78
2022/04/07 07:35:45;;;;;;;4.57;1.00;;;6.00;99.90;;;;;;4977792;28;20436;-78
2022/04/07 07:38:11;;;;;;;5.50;1.00;;;5.90;99.90;;;;;;4962437;28;20050;-78
2022/04/07 07:40:37;;;;;;;4.72;1.00;;;5.90;99.90;;;;;;4979449;28;20039;-78
2022/04/07 07:43:03;;;;;;;5.03;1.05;;;5.80;99.90;;;;;;4978730;28;20030;-78
2022/04/07 07:45:34;;;;;;;4.32;1.10;;;5.80;99.90;;;;;;4981353;28;20037;-77
2022/04/07 07:48:00;;;;;;;4.53;1.00;;;5.70;99.90;;;;;;4988486;28;20034;-77
2022/04/07 07:50:26;;;;;;;4.57;1.15;;;5.70;99.90;;;;;;4975170;28;20572;-78
2022/04/07 07:52:51;;;;;;;5.35;1.20;;;6.10;99.90;;;;;;4974928;28;20047;-78
2022/04/07 07:55:17;;;;;;;3.60;0.90;;;5.70;99.90;;;;;;4958602;28;20048;-79
2022/04/07 07:57:43;;;;;;;5.22;1.17;;;5.60;99.90;;;;;;4975191;28;20050;-79
2022/04/07 08:00:12;;;;;;;4.20;1.10;;;5.60;99.90;;;;;;4979548;28;20038;-79
2022/04/07 08:02:38;;;;;;;4.80;1.15;;;5.60;99.90;;;;;;4975378;28;20062;-79
2022/04/07 08:05:06;;;;;;;5.07;1.20;;;5.60;99.90;;;;;;4962707;28;20046;-79
2022/04/07 08:07:32;;;;;;;3.63;1.00;;;5.60;99.90;;;;;;4973629;28;20050;-79
2022/04/07 08:09:58;;;;;;;5.82;1.30;;;5.50;99.90;;;;;;4979228;28;20034;-80
2022/04/07 08:12:27;;;;;;;4.63;1.30;;;5.50;99.90;;;;;;4961748;28;20120;-80
2022/04/07 08:14:53;;;;;;;5.55;1.30;;;5.50;99.90;;;;;;4958656;28;20049;-80
2022/04/07 08:17:20;;;;;;;5.63;1.23;;;5.50;99.90;;;;;;4974085;28;20522;-79
2022/04/07 08:19:47;;;;;;;5.90;1.20;;;5.60;99.90;;;;;;4974380;28;20038;-80
2022/04/07 08:22:13;;;;;;;5.25;1.30;;;5.60;99.90;;;;;;4961187;28;20109;-78
2022/04/07 08:24:39;;;;;;;4.55;1.30;;;5.60;99.90;;;;;;4995754;28;20487;-79
2022/04/07 08:27:05;;;;;;;5.05;1.23;;;5.70;99.90;;;;;;4958534;28;20033;-79
2022/04/07 08:29:31;;;;;;;6.07;1.30;;;5.70;99.90;;;;;;4974280;28;20045;-79
2022/04/07 08:31:57;;;;;;;4.75;1.25;;;5.70;99.90;;;;;;4979337;28;20050;-78
2022/04/07 08:34:25;;;;;;;5.78;1.20;;;5.70;99.90;;;;;;4973400;28;20049;-79
2022/04/07 08:36:51;;;;;;;6.07;1.40;;;5.70;99.90;;;;;;4958121;28;20042;-79
2022/04/07 08:39:17;;;;;;;5.15;1.30;;;5.80;99.90;;;;;;4942137;28;20078;-80
2022/04/07 08:41:45;;;;;;;4.15;1.20;;;5.80;99.90;;;;;;5002550;28;20050;-77
2022/04/07 08:44:12;;;;;;;7.25;1.35;;;5.80;99.90;;;;;;4958481;28;20661;-77
2022/04/07 08:46:39;;;;;;;5.63;1.45;;;5.90;99.90;;;;;;4974485;28;20043;-77
2022/04/07 08:49:06;;;;;;;4.70;1.20;;;6.00;99.90;;;;;;4973462;28;20125;-77
2022/04/07 08:51:32;;;;;;;5.95;1.35;;;6.30;99.90;;;;;;4969026;28;20409;-77
2022/04/07 08:53:59;;;;;;;6.13;1.40;;;6.20;99.90;;;;;;4993813;28;20409;-77
2022/04/07 08:56:25;;;;;;;5.45;1.27;;;6.40;99.90;;;;;;4977568;28;20121;-77
2022/04/07 08:58:53;;;;;;;7.05;1.20;;;6.50;99.90;;;;;;4993446;28;20181;-77
2022/04/07 09:01:19;;;;;;;5.63;1.20;;;6.40;99.90;;;;;;4977377;28;20140;-77
2022/04/07 09:03:45;;;;;;;4.72;1.10;;;6.60;99.90;;;;;;4974045;28;20034;-78
2022/04/07 09:06:15;;;;;;;4.55;1.20;;;6.90;99.90;;;;;;4990538;28;20045;-78
2022/04/07 09:08:41;;;;;;;5.78;1.40;;;7.30;99.90;;;;;;4957713;28;20050;-78
2022/04/07 09:11:09;;;;;;;6.63;1.30;;;7.80;99.90;;;;;;4968017;28;20060;-78
2022/04/07 09:13:41;;;;;;;4.68;1.13;;;8.20;99.90;;;;;;4989829;28;20039;-80
2022/04/07 09:16:12;;;;;;;5.43;1.25;;;8.60;99.90;;;;;;4979357;28;20030;-80
2022/04/07 09:18:39;;;;;;;4.70;1.20;;;8.90;99.90;;;;;;4987756;28;20401;-78
2022/04/07 09:21:06;;;;;;;4.13;1.00;;;9.10;99.90;;;;;;4973176;28;20039;-78
2022/04/07 09:23:42;;;;;;;5.30;1.30;;;9.30;99.90;;;;;;4973107;28;20113;-78
2022/04/07 09:26:16;;;;;;;4.25;1.17;;;9.60;99.90;;;;;;4975796;28;20034;-78
2022/04/07 09:28:42;;;;;;;3.83;1.25;;;9.80;99.90;;;;;;4973393;28;20129;-78
2022/04/07 09:31:13;;;;;;;5.85;1.35;;;10.00;99.90;;;;;;4957656;28;20125;-78
2022/04/07 09:33:39;;;;;;;6.47;1.50;;;10.20;99.90;;;;;;4989145;28;20481;-78
2022/04/07 09:36:07;;;;;;;4.75;1.20;;;10.30;99.90;;;;;;4973995;28;20465;-78
2022/04/07 09:38:35;;;;;;;7.05;1.20;;;10.40;99.90;;;;;;5005194;28;20043;-78
2022/04/07 09:41:14;;;;;;;5.25;1.38;;;10.50;99.90;;;;;;4992815;28;20054;-78
2022/04/07 09:43:58;;;;;;;5.72;1.25;;;10.60;99.90;;;;;;4992684;28;20047;-78
2022/04/07 09:46:37;;;;;;;7.55;1.67;;;10.80;99.90;;;;;;4992904;28;20030;-78
2022/04/07 09:49:10;;;;;;;7.07;1.50;;;10.70;99.90;;;;;;4988417;28;20439;-78
2022/04/07 09:51:50;;;;;;;6.95;1.40;;;10.80;99.90;;;;;;4972720;28;20520;-78
2022/04/07 09:54:18;;;;;;;7.28;1.67;;;11.00;99.90;;;;;;4974639;28;20187;-78
2022/04/07 09:56:47;;;;;;;9.57;1.70;;;11.00;99.90;;;;;;4992083;28;20038;-77
2022/04/07 09:59:16;;;;;;;8.52;1.70;;;11.10;99.90;;;;;;4974900;28;20046;-77
2022/04/07 10:01:43;;;;;;;8.48;1.90;;;11.10;99.90;;;;;;4986229;28;20410;-77
2022/04/07 10:04:09;;;;;;;7.03;1.75;;;11.20;99.90;;;;;;4981095;28;20042;-77
2022/04/07 10:06:37;;;;;;;7.05;1.77;;;11.20;99.90;;;;;;4964025;28;20030;-77
2022/04/07 10:09:07;;;;;;;7.00;1.60;;;11.00;99.90;;;;;;4976455;28;20481;-77
2022/04/07 10:11:33;;;;;;;7.95;2.38;;;10.80;99.90;;;;;;4993385;28;20569;-78
2022/04/07 10:14:00;;;;;;;8.02;1.90;;;10.60;99.90;;;;;;4971583;28;20418;-78
2022/04/07 10:16:27;;;;;;;6.43;1.67;;;10.50;99.90;;;;;;4958666;28;20039;-78
2022/04/07 10:18:57;;;;;;;11.02;2.30;;;10.40;99.90;;;;;;4990394;28;20057;-80
2022/04/07 10:21:58;;;;;;;8.45;1.77;;;10.20;99.90;;;;;;4992998;28;20125;-79
2022/04/07 10:24:45;;;;;;;9.23;2.10;;;10.10;99.90;;;;;;4993163;28;20504;-79
2022/04/07 10:27:12;;;;;;;8.85;1.95;;;10.00;99.90;;;;;;4976841;28;20034;-80
2022/04/07 10:29:38;;;;;;;11.00;2.40;;;9.90;99.90;;;;;;4994815;28;20045;-80
2022/04/07 10:32:13;;;;;;;10.90;2.33;;;9.90;99.90;;;;;;4980420;28;20038;-79
2022/04/07 10:34:42;;;;;;;9.80;1.73;;;9.90;99.90;;;;;;4980260;28;20038;-79
2022/04/07 10:37:09;;;;;;;10.63;2.20;;;10.00;99.90;;;;;;4996283;28;20046;-78
2022/04/07 10:39:39;;;;;;;10.70;2.08;;;10.10;99.90;;;;;;4950058;28;20074;-77
2022/04/07 10:42:05;;;;;;;10.77;2.15;;;10.20;99.90;;;;;;4995808;28;20038;-82
2022/04/07 10:44:33;;;;;;;9.02;1.88;;;10.20;99.90;;;;;;4984970;28;20035;-78
2022/04/07 10:47:04;;;;;;;12.05;2.20;;;10.60;99.90;;;;;;4982329;28;20042;-78
2022/04/07 10:49:31;;;;;;;10.43;2.50;;;10.70;99.90;;;;;;4993873;28;20050;-78
2022/04/07 10:51:59;;;;;;;10.48;2.03;;;10.70;99.90;;;;;;4993482;28;20553;-78
2022/04/07 10:54:30;;;;;;;11.43;2.35;;;10.70;99.90;;;;;;4995642;28;20053;-78
2022/04/07 10:57:01;;;;;;;12.88;2.50;;;10.80;99.90;;;;;;4996014;28;20493;-78
2022/04/07 10:59:34;;;;;;;9.50;2.10;;;10.70;99.90;;;;;;4995761;28;20042;-78
2022/04/07 11:02:05;;;;;;;11.68;2.17;;;10.50;99.90;;;;;;4995183;28;20584;-78
2022/04/07 11:04:38;;;;;;;12.95;2.47;;;10.40;99.90;;;;;;4995663;28;20043;-78
2022/04/07 11:07:16;;;;;;;13.98;2.38;;;10.50;99.90;;;;;;4979504;28;20042;-78
2022/04/07 11:09:53;;;;;;;10.30;2.30;;;10.30;99.90;;;;;;4996034;28;20042;-78
2022/04/07 11:12:29;;;;;;;10.48;2.25;;;10.30;99.90;;;;;;4995559;28;20041;-78
2022/04/07 11:15:04;;;;;;;7.70;2.15;;;10.30;99.90;;;;;;4976297;28;20041;-78
2022/04/07 11:17:37;;;;;;;12.25;3.13;;;10.20;99.90;;;;;;4972737;28;20034;-78
2022/04/07 11:20:23;;;;;;;12.52;2.67;;;10.20;99.90;;;;;;4975774;28;20089;-78
2022/04/07 11:23:04;;;;;;;10.85;2.28;;;10.40;99.90;;;;;;4975110;28;20039;-78
2022/04/07 11:25:37;;;;;;;10.60;2.63;;;10.50;99.90;;;;;;4991462;28;20049;-77
2022/04/07 11:28:17;;;;;;;10.32;2.53;;;10.70;99.90;;;;;;4974984;28;20034;-77
2022/04/07 11:30:44;;;;;;;9.23;1.92;;;10.60;99.90;;;;;;4976886;28;20043;-77
2022/04/07 11:33:28;;;;;;;12.38;2.42;;;10.40;99.90;;;;;;4990675;28;20129;-77
2022/04/07 11:36:00;;;;;;;12.48;2.58;;;10.10;99.90;;;;;;4991139;28;20042;-77
2022/04/07 11:38:35;;;;;;;12.60;2.58;;;9.60;99.90;;;;;;4974041;28;20046;-77
2022/04/07 11:41:02;;;;;;;13.25;3.00;;;9.60;99.90;;;;;;4984941;28;20125;-77
2022/04/07 11:43:29;;;;;;;12.63;2.70;;;9.80;99.90;;;;;;4984628;28;20039;-77
2022/04/07 11:45:56;;;;;;;11.75;2.67;;;10.00;99.90;;;;;;5000293;28;20117;-77
2022/04/07 11:48:23;;;;;;;12.82;2.65;;;10.20;99.90;;;;;;4977436;28;20042;-77
2022/04/07 11:50:49;;;;;;;13.52;2.42;;;10.40;99.90;;;;;;4979902;28;20520;-77
2022/04/07 11:53:19;;;;;;;11.07;2.60;;;10.60;99.90;;;;;;4985515;28;20094;-77
2022/04/07 11:55:45;;;;;;;13.68;2.80;;;10.70;99.90;;;;;;4979506;28;20039;-76
2022/04/07 11:58:15;;;;;;;16.25;3.13;;;10.80;99.90;;;;;;4985579;28;20414;-78
2022/04/07 12:00:41;;;;;;;10.73;2.70;;;10.90;99.90;;;;;;4980533;28;20050;-77
2022/04/07 12:03:07;;;;;;;12.02;2.85;;;10.80;99.90;;;;;;4985396;28;20070;-77
2022/04/07 12:05:40;;;;;;;14.15;2.80;;;10.90;99.90;;;;;;4970861;28;20077;-77
2022/04/07 12:08:16;;;;;;;11.10;2.40;;;10.80;99.90;;;;;;4984316;28;20113;-77
2022/04/07 12:10:44;;;;;;;14.20;2.97;;;10.80;99.90;;;;;;4984117;28;20082;-77
2022/04/07 12:13:10;;;;;;;11.18;2.40;;;10.70;99.90;;;;;;4985998;28;20081;-77
2022/04/07 12:15:37;;;;;;;9.93;2.42;;;10.80;99.90;;;;;;4985921;28;20046;-77
2022/04/07 12:18:08;;;;;;;10.50;2.22;;;10.90;99.80;;;;;;4991021;28;20050;-77
2022/04/07 12:20:38;;;;;;;15.40;2.70;;;10.90;99.00;;;;;;4989453;28;20443;-77
2022/04/07 12:23:08;;;;;;;10.38;2.42;;;10.70;99.30;;;;;;4983256;28;20049;-77
2022/04/07 12:25:38;;;;;;;12.73;2.35;;;10.80;98.70;;;;;;4983496;28;20121;-77
2022/04/07 12:28:11;;;;;;;15.77;2.72;;;10.80;99.50;;;;;;4985997;28;20041;-77
2022/04/07 12:30:43;;;;;;;14.20;2.78;;;10.90;99.70;;;;;;4983266;28;20082;-77
2022/04/07 12:33:09;;;;;;;10.95;2.30;;;10.90;99.90;;;;;;4979477;28;20051;-77
2022/04/07 12:35:46;;;;;;;14.90;2.90;;;10.90;99.90;;;;;;4980526;28;20039;-77
2022/04/07 12:38:12;;;;;;;12.32;2.90;;;11.10;99.90;;;;;;4981338;28;20050;-77
2022/04/07 12:40:39;;;;;;;12.40;2.60;;;11.10;99.70;;;;;;4980641;28;20055;-77
2022/04/07 12:43:05;;;;;;;10.35;2.70;;;11.20;97.60;;;;;;4968549;28;20121;-77
2022/04/07 12:45:31;;;;;;;13.77;2.78;;;11.20;97.90;;;;;;4985014;28;20117;-77
2022/04/07 12:48:14;;;;;;;10.88;2.50;;;11.00;97.80;;;;;;4977094;28;20045;-77
2022/04/07 12:50:40;;;;;;;13.25;2.53;;;11.10;97.80;;;;;;4970898;28;20058;-77